Rochester, NY (14626)

7:21 PM EDT on September 30, 2014 (GMT -0400)
Raspberry Patch - North Greece | Change Station
CLOSE
Current Station
Personal Weather Station
Location: Rochester, NY
Elevation: 325 ft
Nearby Weather Stations

Elev 325 ft 43.25 °N, 77.73 °W | Updated 5 seconds ago

Mostly Cloudy
Mostly Cloudy
61.5 °F
Feels Like 61.5 °F
N
0.0
Wind Variable Wind from ENE
Gusts 2.7 mph

Today
High -- | Low -- °F
--% Chance of Precip.
Yesterday
High -- | Low -- °F
Precip. -- in
7:07 AM 6:53 PM
Waxing Crescent, 41% visible
Pressure 29.94 in
Visibility 7.0 miles
Clouds Mostly Cloudy 1100 ft
Mostly Cloudy 8500 ft
Mostly Cloudy 18000 ft
Dew Point 50 °F
Humidity 66%
Rainfall 0.00 in
Snow Depth Not available.
UV 0 out of 12
Pollen 1.30 out of 12
Air Quality Not available.
Flu Activity Not available.
METAR KROC 302254Z 04007KT 7SM BKN011 BKN085 BKN180 17/15 A2993 RMK AO2 SLP137 BKN011 V SCT T01720150

More Conditions Fewer Conditions

Pressure 29.94 in
Visibility 7.0 miles
Clouds Mostly Cloudy 1100 ft
Mostly Cloudy 8500 ft
Mostly Cloudy 18000 ft
Dew Point 50 °F
Humidity 66%
Rainfall 0.00 in
Snow Depth Not available.
UV 0 out of 12
Pollen 1.30 out of 12
Air Quality Not available.
Flu Activity Not available.
METAR KROC 302254Z 04007KT 7SM BKN011 BKN085 BKN180 17/15 A2993 RMK AO2 SLP137 BKN011 V SCT T01720150

More Conditions Fewer Conditions

10-Day Weather Forecast

Almanac

Astronomy

Sep. 30, 2014 Rise Set
Actual Time 7:07 AM EDT 6:53 PM EDT
Civil Twilight 6:38 AM EDT 7:22 PM EDT
Nautical Twilight 6:05 AM EDT 7:55 PM EDT
Astronomical Twilight 5:32 AM EDT 8:28 PM EDT
Moon 1:20 PM EDT 11:14 PM EDT
Length of Visible Light 12h 43m
Length of Day
11h 46m
Tomorrow will be 2m 55s shorter.
Waxing Crescent, 41% of the Moon is Illuminated
Today
Waxing Crescent
Oct 1
First Quarter
Oct 8
Full
Oct 15
Last Quarter
Oct 23
New

Today's Extremes

State Highs State Lows

Community

WunderPhotos

Upload Photos

1,757,768 photos uploaded!

Nearby

Air Quality

  Air Quality AQ Index Pollutant
Tuesday Moderate
PM2.5
Tuesday Good
OZONE
Wednesday Good
PM2.5

Snow Depth

Station Depth Elevation
No new snow has been reported.

Earthquake Activity

City Distance Mag. Time & Date
No recent earthquake activity has been reported nearby.
Minimum magnitude displayed is 2.5.

Coastal Water Temperatures

Place Temperature
Buffalo, NY 68.0 °F
Alexandria Bay, NY 64.9 °F

Nearby Weather Stations